createdAt,value
2023-02-08T00:04:01.077Z,-1.50
2023-02-08T00:07:57.677Z,-1.52
2023-02-08T00:12:01.233Z,-1.56
2023-02-08T00:15:56.325Z,-1.61
2023-02-08T00:19:58.611Z,-1.64
2023-02-08T00:23:40.280Z,-1.64
2023-02-08T00:27:29.833Z,-1.65
2023-02-08T00:31:27.631Z,-1.67
2023-02-08T00:35:30.409Z,-1.67
2023-02-08T00:39:34.469Z,-1.63
2023-02-08T00:43:15.785Z,-1.63
2023-02-08T00:47:19.806Z,-1.63
2023-02-08T00:51:23.848Z,-1.64
2023-02-08T00:55:16.065Z,-1.66
2023-02-08T00:59:19.642Z,-1.68
2023-02-08T01:03:23.192Z,-1.72
2023-02-08T01:07:00.570Z,-1.76
2023-02-08T01:10:54.202Z,-1.76
2023-02-08T01:14:41.057Z,-1.77
2023-02-08T01:18:37.740Z,-1.81
2023-02-08T01:22:41.144Z,-1.82
2023-02-08T01:26:06.604Z,-1.88
2023-02-08T01:29:57.807Z,-1.87
2023-02-08T01:34:01.421Z,-1.87
2023-02-08T01:38:05.545Z,-1.87
2023-02-08T01:42:13.958Z,-1.89
2023-02-08T01:46:17.438Z,-1.86
2023-02-08T01:50:13.705Z,-1.89
2023-02-08T01:54:09.940Z,-1.92
2023-02-08T01:58:00.150Z,-1.93
2023-02-08T02:01:56.866Z,-1.94
2023-02-08T02:05:53.213Z,-1.93
2023-02-08T02:09:30.934Z,-1.95
2023-02-08T02:13:14.815Z,-1.97
2023-02-08T02:17:18.386Z,-1.97
2023-02-08T02:21:31.500Z,-1.94
2023-02-08T02:25:58.398Z,-1.91
2023-02-08T02:30:03.262Z,-1.91
2023-02-08T02:34:25.218Z,-1.88
2023-02-08T02:38:30.520Z,-1.87
2023-02-08T02:42:54.202Z,-1.87
2023-02-08T02:47:11.795Z,-1.89
2023-02-08T02:51:24.988Z,-1.93
2023-02-08T02:55:28.366Z,-1.95
2023-02-08T02:59:23.707Z,-1.92
2023-02-08T03:03:11.441Z,-1.82
2023-02-08T03:07:13.289Z,-1.76
2023-02-08T03:11:12.680Z,-1.69
2023-02-08T03:15:11.953Z,-1.61
2023-02-08T03:19:24.370Z,-1.55
2023-02-08T03:23:37.495Z,-1.55
2023-02-08T03:27:47.344Z,-1.53
2023-02-08T03:32:09.011Z,-1.57
2023-02-08T03:36:18.739Z,-1.61
2023-02-08T03:40:23.633Z,-1.58
2023-02-08T03:44:28.773Z,-1.58
2023-02-08T03:48:13.598Z,-1.62
2023-02-08T03:52:17.517Z,-1.63
2023-02-08T03:56:21.245Z,-1.65
2023-02-08T04:00:21.676Z,-1.61
2023-02-08T04:04:25.265Z,-1.58
2023-02-08T04:08:29.348Z,-1.59
2023-02-08T04:12:32.907Z,-1.59
2023-02-08T04:16:36.974Z,-1.59
2023-02-08T04:20:25.440Z,-1.60
2023-02-08T04:24:21.966Z,-1.62
2023-02-08T04:28:11.250Z,-1.61
2023-02-08T04:32:07.430Z,-1.60
2023-02-08T04:36:11.082Z,-1.59
2023-02-08T04:40:07.259Z,-1.60
2023-02-08T04:44:10.986Z,-1.61
2023-02-08T04:48:15.014Z,-1.64
2023-02-08T04:51:55.567Z,-1.60
2023-02-08T04:55:59.430Z,-1.57
2023-02-08T05:00:01.796Z,-1.57
2023-02-08T05:04:03.940Z,-1.56
2023-02-08T05:08:07.583Z,-1.71
2023-02-08T05:12:11.154Z,-1.71
2023-02-08T05:16:03.555Z,-1.71
2023-02-08T05:20:00.588Z,-1.76
2023-02-08T05:23:45.234Z,-1.78
2023-02-08T05:27:50.352Z,-1.89
2023-02-08T05:31:54.058Z,-2.02
2023-02-08T05:35:58.090Z,-2.04
2023-02-08T05:40:02.141Z,-2.01
2023-02-08T05:44:06.200Z,-1.92
2023-02-08T05:48:09.368Z,-1.92
2023-02-08T05:52:05.655Z,-1.93
2023-02-08T05:56:09.297Z,-1.92
2023-02-08T06:00:12.968Z,-1.88
2023-02-08T06:04:16.686Z,-1.85
2023-02-08T06:08:20.491Z,-1.82
2023-02-08T06:12:16.736Z,-1.79
2023-02-08T06:16:20.151Z,-1.82
2023-02-08T06:20:23.890Z,-1.85
2023-02-08T06:24:28.421Z,-1.84
2023-02-08T06:28:32.600Z,-1.82
2023-02-08T06:32:26.152Z,-1.81
2023-02-08T06:35:35.237Z,-1.79
2023-02-08T06:38:59.806Z,-1.83
2023-02-08T06:43:03.434Z,-1.82
2023-02-08T06:46:08.837Z,-1.78
2023-02-08T06:49:15.150Z,-1.77
2023-02-08T06:52:19.204Z,-1.77
2023-02-08T06:55:22.165Z,-1.76
2023-02-08T06:58:27.822Z,-1.70
2023-02-08T07:01:30.834Z,-1.69
2023-02-08T07:04:54.592Z,-1.71
2023-02-08T07:08:32.186Z,-1.73
2023-02-08T07:11:35.304Z,-1.68
2023-02-08T07:14:41.598Z,-1.66
2023-02-08T07:18:08.105Z,-1.62
2023-02-08T07:22:11.749Z,-1.69
2023-02-08T07:26:16.339Z,-1.83
2023-02-08T07:30:10.175Z,-1.72
2023-02-08T07:34:13.741Z,-1.63
2023-02-08T07:38:19.161Z,-1.61
2023-02-08T07:42:24.607Z,-1.57
2023-02-08T07:46:18.864Z,-1.54
2023-02-08T07:49:37.254Z,-1.61
2023-02-08T07:53:13.770Z,-1.65
2023-02-08T07:57:08.209Z,-1.69
2023-02-08T08:01:21.883Z,-1.64
2023-02-08T08:04:45.757Z,-1.57
2023-02-08T08:07:54.657Z,-1.52
2023-02-08T08:11:42.206Z,-1.46
2023-02-08T08:15:38.831Z,-1.42
2023-02-08T08:19:42.361Z,-1.40
2023-02-08T08:23:46.078Z,-1.33
2023-02-08T08:27:49.806Z,-1.37
2023-02-08T08:31:41.700Z,-1.44
2023-02-08T08:35:45.432Z,-1.64
2023-02-08T08:39:49.001Z,-1.68
2023-02-08T08:43:52.613Z,-1.73
2023-02-08T08:47:41.296Z,-1.76
2023-02-08T08:51:37.798Z,-1.74
2023-02-08T08:55:34.010Z,-1.69
2023-02-08T08:59:36.410Z,-1.58
2023-02-08T09:03:36.836Z,-1.61
2023-02-08T09:07:39.783Z,-1.57
2023-02-08T09:11:49.490Z,-1.48
2023-02-08T09:15:53.641Z,-1.46
2023-02-08T09:19:55.244Z,-1.42
2023-02-08T09:23:59.299Z,-1.41
2023-02-08T09:28:03.490Z,-1.38
2023-02-08T09:32:10.513Z,-1.36
2023-02-08T09:36:00.077Z,-1.31
2023-02-08T09:40:05.608Z,-1.29
2023-02-08T09:44:06.879Z,-1.24
2023-02-08T09:47:33.000Z,-1.12
2023-02-08T09:51:05.300Z,-1.04
2023-02-08T09:54:26.433Z,-0.93
2023-02-08T09:57:47.303Z,-0.81
2023-02-08T10:01:15.965Z,-0.77
2023-02-08T10:05:28.783Z,-0.77
2023-02-08T10:09:16.169Z,-0.84
2023-02-08T10:13:06.637Z,-0.80
2023-02-08T10:16:59.258Z,-0.72
2023-02-08T10:21:04.616Z,-0.67
2023-02-08T10:24:40.412Z,-0.58
2023-02-08T10:28:46.960Z,-0.56
2023-02-08T10:32:30.414Z,-0.44
2023-02-08T10:36:15.982Z,-0.42
2023-02-08T10:39:52.474Z,-0.37
2023-02-08T10:43:52.251Z,-0.32
2023-02-08T10:47:55.025Z,-0.29
2023-02-08T10:51:11.912Z,-0.25
2023-02-08T10:54:18.674Z,-0.15
2023-02-08T10:57:49.547Z,-0.08
2023-02-08T11:01:11.595Z,-0.02
2023-02-08T11:04:38.777Z,0.07
2023-02-08T11:08:15.604Z,0.16
2023-02-08T11:11:21.912Z,0.24
2023-02-08T11:14:46.736Z,0.31
2023-02-08T11:18:01.899Z,0.38
2023-02-08T11:22:08.588Z,0.47
2023-02-08T11:26:05.455Z,0.58
2023-02-08T11:29:52.132Z,0.70
2023-02-08T11:33:28.005Z,0.81
2023-02-08T11:37:11.479Z,0.88
2023-02-08T11:40:55.672Z,0.96
2023-02-08T11:44:44.323Z,1.05
2023-02-08T11:48:02.367Z,1.12
2023-02-08T11:51:53.277Z,1.21
2023-02-08T11:55:48.719Z,1.32
2023-02-08T11:59:05.117Z,1.42
2023-02-08T12:03:20.131Z,1.54
2023-02-08T12:07:09.633Z,1.66
2023-02-08T12:10:55.542Z,1.75
2023-02-08T12:15:09.925Z,1.81
2023-02-08T12:19:06.983Z,1.94
2023-02-08T12:22:52.468Z,2.03
2023-02-08T12:26:09.760Z,2.11
2023-02-08T12:29:54.886Z,2.22
2023-02-08T12:33:44.734Z,2.29
2023-02-08T12:37:56.261Z,2.38
2023-02-08T12:42:13.603Z,2.40
2023-02-08T12:46:29.141Z,2.46
2023-02-08T12:50:28.292Z,2.57
2023-02-08T12:54:01.166Z,2.64
2023-02-08T12:57:13.560Z,2.73
2023-02-08T13:00:56.891Z,2.82
2023-02-08T13:04:49.140Z,2.98
2023-02-08T13:08:42.819Z,3.10
2023-02-08T13:12:35.660Z,3.19
2023-02-08T13:16:29.617Z,3.33
2023-02-08T13:20:36.268Z,3.40
2023-02-08T13:24:30.639Z,3.51
2023-02-08T13:27:57.036Z,3.65
2023-02-08T13:31:47.078Z,3.67
2023-02-08T13:35:53.471Z,3.75
2023-02-08T13:39:54.067Z,3.81
2023-02-08T13:43:59.626Z,3.87
2023-02-08T13:47:35.391Z,3.64
2023-02-08T13:51:23.530Z,3.20
2023-02-08T13:55:27.197Z,2.94
2023-02-08T13:58:56.682Z,2.61
2023-02-08T14:02:31.767Z,2.42
2023-02-08T14:06:04.267Z,2.29
2023-02-08T14:10:09.905Z,2.19
2023-02-08T14:13:55.590Z,2.07
2023-02-08T14:17:09.193Z,1.88
2023-02-08T14:20:55.791Z,1.78
2023-02-08T14:24:34.757Z,1.69
2023-02-08T14:28:31.712Z,1.67
2023-02-08T14:32:07.795Z,1.63
2023-02-08T14:35:37.741Z,1.61
2023-02-08T14:39:34.596Z,1.58
2023-02-08T14:43:23.133Z,1.51
2023-02-08T14:47:12.726Z,1.46
2023-02-08T14:50:50.815Z,1.43
2023-02-08T14:54:35.531Z,1.39
2023-02-08T14:58:24.418Z,1.31
2023-02-08T15:02:01.912Z,1.25
2023-02-08T15:05:32.056Z,1.19
2023-02-08T15:08:46.566Z,1.18
2023-02-08T15:12:29.037Z,1.16
2023-02-08T15:15:51.752Z,1.11
2023-02-08T15:19:11.067Z,1.12
2023-02-08T15:22:48.620Z,1.07
2023-02-08T15:26:21.270Z,1.05
2023-02-08T15:29:48.999Z,1.03
2023-02-08T15:33:35.260Z,1.02
2023-02-08T15:36:48.676Z,0.98
2023-02-08T15:40:35.339Z,0.96
2023-02-08T15:44:04.413Z,0.95
2023-02-08T15:47:46.131Z,0.90
2023-02-08T15:51:24.817Z,0.89
2023-02-08T15:54:32.026Z,0.88
2023-02-08T15:58:38.187Z,0.83
2023-02-08T16:02:05.864Z,0.77
2023-02-08T16:05:32.734Z,0.73
2023-02-08T16:09:05.891Z,0.70
2023-02-08T16:12:25.194Z,0.62
2023-02-08T16:16:31.222Z,0.58
2023-02-08T16:20:33.716Z,0.51
2023-02-08T16:24:35.214Z,0.48
2023-02-08T16:28:38.847Z,0.43
2023-02-08T16:32:45.544Z,0.39
2023-02-08T16:36:48.519Z,0.37
2023-02-08T16:40:31.157Z,0.34
2023-02-08T16:44:10.829Z,0.32
2023-02-08T16:48:29.585Z,0.31
2023-02-08T16:52:38.996Z,0.30
2023-02-08T16:56:45.647Z,0.28
2023-02-08T17:00:39.215Z,0.25
2023-02-08T17:04:42.866Z,0.25
2023-02-08T17:08:46.993Z,0.21
2023-02-08T17:13:40.545Z,0.17
2023-02-08T17:17:17.630Z,0.10
2023-02-08T17:21:25.488Z,0.09
2023-02-08T17:25:18.965Z,0.07
2023-02-08T17:29:00.950Z,0.03
2023-02-08T17:37:56.237Z,-0.03
2023-02-08T17:41:59.860Z,-0.03
2023-02-08T17:46:03.948Z,-0.07
2023-02-08T17:49:35.557Z,-0.12
2023-02-08T17:53:39.336Z,-0.13
2023-02-08T17:57:43.721Z,-0.17
2023-02-08T18:01:48.306Z,-0.19
2023-02-08T18:05:52.957Z,-0.25
2023-02-08T18:09:57.581Z,-0.29
2023-02-08T18:14:01.750Z,-0.32
2023-02-08T18:17:57.814Z,-0.35
2023-02-08T18:21:33.015Z,-0.37
2023-02-08T18:25:22.973Z,-0.39
2023-02-08T18:29:19.421Z,-0.40
2023-02-08T18:33:23.653Z,-0.44
2023-02-08T18:37:33.254Z,-0.50
2023-02-08T18:41:37.014Z,-0.52
2023-02-08T18:45:31.824Z,-0.54
2023-02-08T18:49:35.521Z,-0.56
2023-02-08T18:53:39.084Z,-0.60
2023-02-08T18:57:42.690Z,-0.64
2023-02-08T19:01:48.230Z,-0.67
2023-02-08T19:05:52.091Z,-0.71
2023-02-08T19:09:49.358Z,-0.75
2023-02-08T19:13:53.037Z,-0.79
2023-02-08T19:17:42.254Z,-0.80
2023-02-08T19:21:33.410Z,-0.83
2023-02-08T19:25:37.011Z,-0.86
2023-02-08T19:29:34.649Z,-0.88
2023-02-08T19:33:31.006Z,-0.91
2023-02-08T19:37:34.585Z,-0.95
2023-02-08T19:41:31.069Z,-1.00
2023-02-08T19:45:33.511Z,-1.01
2023-02-08T19:49:37.175Z,-1.02
2023-02-08T19:53:06.398Z,-1.07
2023-02-08T19:57:18.954Z,-1.11
2023-02-08T20:01:15.560Z,-1.15
2023-02-08T20:05:20.663Z,-1.15
2023-02-08T20:09:24.430Z,-1.21
2023-02-08T20:13:28.032Z,-1.25
2023-02-08T20:17:32.111Z,-1.25
2023-02-08T20:21:40.364Z,-1.24
2023-02-08T20:25:44.212Z,-1.24
2023-02-08T20:29:43.471Z,-1.26
2023-02-08T20:33:47.420Z,-1.27
2023-02-08T20:37:48.928Z,-1.26
2023-02-08T20:41:46.342Z,-1.29
2023-02-08T20:45:50.225Z,-1.33
2023-02-08T20:49:46.522Z,-1.39
2023-02-08T20:53:50.141Z,-1.42
2023-02-08T20:57:53.982Z,-1.42
2023-02-08T21:01:57.687Z,-1.43
2023-02-08T21:05:42.586Z,-1.46
2023-02-08T21:09:46.188Z,-1.53
2023-02-08T21:13:50.275Z,-1.55
2023-02-08T21:17:54.345Z,-1.58
2023-02-08T21:21:58.061Z,-1.59
2023-02-08T21:26:02.006Z,-1.61
2023-02-08T21:30:06.069Z,-1.61
2023-02-08T21:33:52.672Z,-1.68
2023-02-08T21:37:56.391Z,-1.76
2023-02-08T21:41:52.821Z,-1.83
2023-02-08T21:45:46.635Z,-1.87
2023-02-08T21:49:48.609Z,-1.91
2023-02-08T21:53:51.264Z,-1.92
2023-02-08T21:57:26.997Z,-1.93
2023-02-08T22:01:30.655Z,-1.94
2023-02-08T22:05:03.506Z,-1.92
2023-02-08T22:08:35.039Z,-1.92
2023-02-08T22:12:38.730Z,-1.89
2023-02-08T22:16:41.255Z,-1.86
2023-02-08T22:20:23.557Z,-1.92
2023-02-08T22:24:20.209Z,-1.98
2023-02-08T22:28:23.840Z,-2.02
2023-02-08T22:32:27.600Z,-2.06
2023-02-08T22:36:13.961Z,-2.10
2023-02-08T22:40:10.630Z,-2.14
2023-02-08T22:44:14.265Z,-2.19
2023-02-08T22:48:18.231Z,-2.27
2023-02-08T22:52:20.512Z,-2.31
2023-02-08T22:56:30.058Z,-2.30
2023-02-08T23:00:32.854Z,-2.32
2023-02-08T23:04:36.429Z,-2.28
2023-02-08T23:08:32.820Z,-2.27
2023-02-08T23:12:29.546Z,-2.27
2023-02-08T23:16:21.853Z,-2.31
2023-02-08T23:19:55.031Z,-2.34
2023-02-08T23:23:58.713Z,-2.36
2023-02-08T23:28:02.382Z,-2.40
2023-02-08T23:31:59.368Z,-2.44
2023-02-08T23:35:58.991Z,-2.46
2023-02-08T23:40:01.596Z,-2.44
2023-02-08T23:44:08.516Z,-2.42
2023-02-08T23:48:00.772Z,-2.41
2023-02-08T23:52:04.773Z,-2.41
2023-02-08T23:56:08.854Z,-2.48
